createdAt,value
2016-08-12T00:00:04.326Z,0
2016-08-12T00:01:05.112Z,0
2016-08-12T00:02:04.238Z,0
2016-08-12T00:03:03.880Z,0
2016-08-12T00:04:03.809Z,0
2016-08-12T00:05:03.800Z,0
2016-08-12T00:06:03.811Z,0
2016-08-12T00:07:03.847Z,0
2016-08-12T00:08:03.731Z,0
2016-08-12T00:09:03.722Z,0
2016-08-12T00:10:03.724Z,0
2016-08-12T00:11:03.770Z,0
2016-08-12T00:12:03.743Z,0
2016-08-12T00:13:03.724Z,0
2016-08-12T00:14:03.720Z,0
2016-08-12T00:15:04.430Z,0
2016-08-12T00:16:03.703Z,0
2016-08-12T00:17:03.692Z,0
2016-08-12T00:18:03.658Z,0
2016-08-12T00:19:03.699Z,0
2016-08-12T00:20:03.660Z,0
2016-08-12T00:21:03.704Z,0
2016-08-12T00:22:03.647Z,0
2016-08-12T00:23:03.647Z,0
2016-08-12T00:24:03.632Z,0
2016-08-12T00:25:03.629Z,0
2016-08-12T00:26:03.628Z,0
2016-08-12T00:27:03.579Z,0
2016-08-12T00:28:03.625Z,0
2016-08-12T00:29:04.276Z,0
2016-08-12T00:30:03.579Z,0
2016-08-12T00:31:03.568Z,0
2016-08-12T00:32:03.574Z,0
2016-08-12T00:33:04.297Z,0
2016-08-12T00:34:03.542Z,0
2016-08-12T00:35:03.544Z,0
2016-08-12T00:36:03.519Z,0
2016-08-12T00:37:03.561Z,0
2016-08-12T00:38:03.580Z,0
2016-08-12T00:39:03.537Z,0
2016-08-12T00:40:03.506Z,0
2016-08-12T00:41:04.179Z,0
2016-08-12T00:42:03.506Z,0
2016-08-12T00:43:03.502Z,0
2016-08-12T00:44:03.491Z,0
2016-08-12T00:45:03.516Z,0
2016-08-12T00:46:03.468Z,0
2016-08-12T00:47:03.452Z,0
2016-08-12T00:49:03.420Z,0
2016-08-12T00:50:03.462Z,0
2016-08-12T00:51:03.705Z,0
2016-08-12T00:52:03.415Z,0
2016-08-12T00:53:04.102Z,0
2016-08-12T00:54:03.430Z,0
2016-08-12T00:55:03.646Z,0
2016-08-12T00:56:03.365Z,0
2016-08-12T00:57:03.376Z,0
2016-08-12T00:58:03.571Z,0
2016-08-12T00:59:03.429Z,0
2016-08-12T01:00:03.326Z,0
2016-08-12T01:01:03.335Z,0
2016-08-12T01:02:03.365Z,0
2016-08-12T01:03:03.340Z,0
2016-08-12T01:04:03.336Z,0
2016-08-12T01:05:03.441Z,0
2016-08-12T01:06:03.308Z,0
2016-08-12T01:07:03.314Z,0
2016-08-12T01:08:03.362Z,0
2016-08-12T01:09:03.535Z,0
2016-08-12T01:10:03.266Z,0
2016-08-12T01:11:03.301Z,0
2016-08-12T01:12:04.018Z,0
2016-08-12T01:13:03.284Z,0
2016-08-12T01:14:03.234Z,0
2016-08-12T01:15:03.228Z,0
2016-08-12T01:16:03.263Z,0
2016-08-12T01:17:03.229Z,0
2016-08-12T01:19:03.218Z,0
2016-08-12T01:20:03.209Z,0
2016-08-12T01:21:03.198Z,0
2016-08-12T01:22:03.913Z,0
2016-08-12T01:23:03.174Z,0
2016-08-12T01:24:03.215Z,0
2016-08-12T01:25:03.142Z,0
2016-08-12T01:26:03.148Z,0
2016-08-12T01:27:03.139Z,0
2016-08-12T01:28:03.109Z,0
2016-08-12T01:29:03.101Z,0
2016-08-12T01:30:03.093Z,0
2016-08-12T01:31:03.091Z,0
2016-08-12T01:32:03.110Z,0
2016-08-12T01:33:03.092Z,0
2016-08-12T01:34:03.068Z,0
2016-08-12T01:35:03.061Z,0
2016-08-12T01:36:03.046Z,0
2016-08-12T01:37:03.750Z,0
2016-08-12T01:38:03.038Z,0
2016-08-12T01:39:03.191Z,0
2016-08-12T01:40:03.775Z,0
2016-08-12T01:41:03.006Z,0
2016-08-12T01:42:03.013Z,0
2016-08-12T01:43:03.143Z,0
2016-08-12T01:44:02.974Z,0
2016-08-12T01:45:02.977Z,0
2016-08-12T01:46:03.082Z,0
2016-08-12T01:47:02.973Z,0
2016-08-12T01:48:02.951Z,0
2016-08-12T01:49:02.955Z,0
2016-08-12T01:50:03.040Z,0
2016-08-12T01:51:02.924Z,0
2016-08-12T01:52:02.931Z,0
2016-08-12T01:53:02.912Z,0
2016-08-12T01:54:02.919Z,0
2016-08-12T01:55:02.899Z,0
2016-08-12T01:56:02.889Z,0
2016-08-12T01:57:02.863Z,0
2016-08-12T01:58:02.881Z,0
2016-08-12T01:59:02.852Z,0
2016-08-12T02:00:02.936Z,0
2016-08-12T02:01:02.847Z,0
2016-08-12T02:02:02.832Z,0
2016-08-12T02:03:02.843Z,0
2016-08-12T02:04:02.823Z,0
2016-08-12T02:05:02.849Z,0
2016-08-12T02:06:02.816Z,0
2016-08-12T02:07:03.517Z,0
2016-08-12T02:08:02.819Z,0
2016-08-12T02:09:02.783Z,0
2016-08-12T02:10:03.575Z,0
2016-08-12T02:11:02.800Z,0
2016-08-12T02:12:02.769Z,0
2016-08-12T02:13:02.783Z,0
2016-08-12T02:14:02.756Z,0
2016-08-12T02:15:02.754Z,0
2016-08-12T02:16:02.757Z,0
2016-08-12T02:17:02.740Z,0
2016-08-12T02:18:02.723Z,0
2016-08-12T02:19:02.743Z,0
2016-08-12T02:20:02.691Z,0
2016-08-12T02:21:02.700Z,0
2016-08-12T02:22:02.677Z,0
2016-08-12T02:23:02.677Z,0
2016-08-12T02:24:02.667Z,0
2016-08-12T02:25:02.756Z,0
2016-08-12T02:26:02.659Z,0
2016-08-12T02:27:02.644Z,0
2016-08-12T02:28:02.634Z,0
2016-08-12T02:29:02.640Z,0
2016-08-12T02:30:02.692Z,0
2016-08-12T02:31:02.607Z,0
2016-08-12T02:32:02.621Z,0
2016-08-12T02:33:02.639Z,0
2016-08-12T02:34:02.625Z,0
2016-08-12T02:35:03.372Z,0
2016-08-12T02:36:02.604Z,0
2016-08-12T02:37:02.613Z,0
2016-08-12T02:38:02.557Z,0
2016-08-12T02:39:02.550Z,0
2016-08-12T02:40:02.574Z,0
2016-08-12T02:41:02.660Z,0
2016-08-12T02:42:02.546Z,0
2016-08-12T02:43:02.595Z,0
2016-08-12T02:44:02.908Z,0
2016-08-12T02:45:04.271Z,0
2016-08-12T02:46:03.255Z,0
2016-08-12T02:47:02.492Z,0
2016-08-12T02:48:02.500Z,0
2016-08-12T02:49:02.489Z,0
2016-08-12T02:50:02.495Z,0
2016-08-12T02:51:02.498Z,0
2016-08-12T02:52:02.467Z,0
2016-08-12T02:53:02.443Z,0
2016-08-12T02:54:02.457Z,0
2016-08-12T02:55:02.491Z,0
2016-08-12T02:56:02.415Z,0
2016-08-12T02:57:02.441Z,0
2016-08-12T02:58:02.439Z,0
2016-08-12T02:59:02.451Z,0
2016-08-12T03:00:03.119Z,0
2016-08-12T03:01:03.121Z,0
2016-08-12T03:02:02.399Z,0
2016-08-12T03:03:02.373Z,0
2016-08-12T03:04:02.369Z,0
2016-08-12T03:05:02.404Z,0
2016-08-12T03:06:02.390Z,0
2016-08-12T03:07:02.359Z,0
2016-08-12T03:08:02.321Z,0
2016-08-12T03:09:02.406Z,0
2016-08-12T03:10:02.312Z,0
2016-08-12T03:11:02.332Z,0
2016-08-12T03:12:02.376Z,0
2016-08-12T03:13:02.301Z,0
2016-08-12T03:14:02.305Z,0
2016-08-12T03:15:02.312Z,0
2016-08-12T03:16:02.270Z,0
2016-08-12T03:17:02.367Z,0
2016-08-12T03:18:02.981Z,0
2016-08-12T03:19:02.275Z,0
2016-08-12T03:20:02.291Z,0
2016-08-12T03:21:02.260Z,0
2016-08-12T03:22:02.294Z,0
2016-08-12T03:23:02.276Z,0
2016-08-12T03:24:02.219Z,0
2016-08-12T03:25:02.239Z,0
2016-08-12T03:26:02.298Z,4
2016-08-12T03:27:02.226Z,4
2016-08-12T03:28:02.207Z,0
2016-08-12T03:29:02.178Z,4
2016-08-12T03:30:02.177Z,0
2016-08-12T03:31:02.167Z,4
2016-08-12T03:32:02.156Z,4
2016-08-12T03:33:02.183Z,4
2016-08-12T03:34:02.147Z,4
2016-08-12T03:35:02.158Z,8
2016-08-12T03:36:02.136Z,8
2016-08-12T03:37:02.171Z,12
2016-08-12T03:38:02.120Z,12
2016-08-12T03:39:02.114Z,16
2016-08-12T03:40:02.097Z,16
2016-08-12T03:41:02.075Z,20
2016-08-12T03:42:02.135Z,20
2016-08-12T03:43:02.059Z,24
2016-08-12T03:44:02.270Z,28
2016-08-12T03:45:02.778Z,28
2016-08-12T03:46:02.059Z,36
2016-08-12T03:47:02.062Z,40
2016-08-12T03:48:02.036Z,44
2016-08-12T03:49:02.084Z,52
2016-08-12T03:50:02.754Z,64
2016-08-12T03:51:01.993Z,68
2016-08-12T03:52:02.008Z,72
2016-08-12T03:53:02.004Z,80
2016-08-12T03:54:01.984Z,92
2016-08-12T03:55:01.966Z,100
2016-08-12T03:56:02.665Z,100
2016-08-12T03:57:01.953Z,104
2016-08-12T03:58:01.966Z,116
2016-08-12T03:59:01.972Z,128
2016-08-12T04:00:01.961Z,144
2016-08-12T04:01:01.930Z,144
2016-08-12T04:02:01.916Z,152
2016-08-12T04:03:01.928Z,152
2016-08-12T04:04:01.920Z,160
2016-08-12T04:05:01.889Z,168
2016-08-12T04:06:01.914Z,216
2016-08-12T04:07:02.665Z,220
2016-08-12T04:08:01.916Z,220
2016-08-12T04:09:01.924Z,212
2016-08-12T04:10:01.899Z,220
2016-08-12T04:11:01.867Z,204
2016-08-12T04:12:02.617Z,236
2016-08-12T04:13:01.830Z,256
2016-08-12T04:14:01.896Z,284
2016-08-12T04:15:01.958Z,288
2016-08-12T04:16:01.802Z,284
2016-08-12T04:17:01.842Z,308
2016-08-12T04:18:01.847Z,336
2016-08-12T04:19:01.855Z,324
2016-08-12T04:20:02.516Z,284
2016-08-12T04:21:01.784Z,300
2016-08-12T04:22:01.786Z,276
2016-08-12T04:23:01.771Z,300
2016-08-12T04:24:01.765Z,336
2016-08-12T04:25:01.737Z,364
2016-08-12T04:26:01.726Z,348
2016-08-12T04:27:01.735Z,340
2016-08-12T04:28:01.752Z,388
2016-08-12T04:29:01.743Z,400
2016-08-12T04:30:01.757Z,416
2016-08-12T04:31:01.813Z,360
2016-08-12T04:32:01.771Z,384
2016-08-12T04:33:01.765Z,424
2016-08-12T04:35:01.688Z,520
2016-08-12T04:36:01.688Z,584
2016-08-12T04:37:01.707Z,652
2016-08-12T04:38:01.708Z,716
2016-08-12T04:39:01.721Z,632
2016-08-12T04:40:01.770Z,564
2016-08-12T04:41:01.715Z,632
2016-08-12T04:42:01.742Z,764
2016-08-12T04:43:01.747Z,740
2016-08-12T04:44:01.707Z,740
2016-08-12T04:45:01.689Z,736
2016-08-12T04:46:01.716Z,680
2016-08-12T04:47:01.668Z,780
2016-08-12T04:48:01.679Z,760
2016-08-12T04:50:01.726Z,804
2016-08-12T04:51:01.651Z,796
2016-08-12T04:52:01.627Z,812
2016-08-12T04:53:01.655Z,788
2016-08-12T04:54:02.371Z,820
2016-08-12T04:55:01.683Z,836
2016-08-12T04:56:01.702Z,820
2016-08-12T04:57:01.672Z,892
2016-08-12T04:58:01.684Z,952
2016-08-12T04:59:01.602Z,1012
2016-08-12T05:00:01.619Z,992
2016-08-12T05:01:01.624Z,916
2016-08-12T05:02:01.671Z,984
2016-08-12T05:03:01.634Z,1076
2016-08-12T05:05:01.647Z,1156
2016-08-12T05:06:01.615Z,1016
2016-08-12T05:07:01.601Z,1016
2016-08-12T05:08:01.620Z,1036
2016-08-12T05:09:01.615Z,860
2016-08-12T05:10:01.623Z,840
2016-08-12T05:11:02.295Z,964
2016-08-12T05:12:01.572Z,1000
2016-08-12T05:13:01.539Z,1104
2016-08-12T05:14:01.549Z,1144
2016-08-12T05:15:01.551Z,1128
2016-08-12T05:16:01.603Z,1088
2016-08-12T05:17:01.569Z,1040
2016-08-12T05:18:01.597Z,1024
2016-08-12T05:19:02.313Z,1028
2016-08-12T05:20:01.584Z,984
2016-08-12T05:21:01.578Z,996
2016-08-12T05:22:01.697Z,996
2016-08-12T05:23:01.594Z,1132
2016-08-12T05:24:01.501Z,1116
2016-08-12T05:25:01.530Z,976
2016-08-12T05:26:01.557Z,940
2016-08-12T05:27:02.290Z,864
2016-08-12T05:28:01.555Z,776
2016-08-12T05:29:01.579Z,772
2016-08-12T05:30:01.599Z,908
2016-08-12T05:31:01.946Z,936
2016-08-12T05:32:01.459Z,1176
2016-08-12T05:33:01.641Z,1204
2016-08-12T05:34:01.636Z,1376
2016-08-12T05:35:01.401Z,1500
2016-08-12T05:36:01.514Z,1380
2016-08-12T05:37:01.515Z,1532
2016-08-12T05:38:01.629Z,1624
2016-08-12T05:39:01.972Z,1744
2016-08-12T05:40:01.369Z,1984
2016-08-12T05:41:01.348Z,1960
2016-08-12T05:42:02.001Z,1616
2016-08-12T05:43:01.381Z,1592
2016-08-12T05:44:01.426Z,1568
2016-08-12T05:45:01.344Z,1488
2016-08-12T05:46:01.348Z,1848
2016-08-12T05:47:01.323Z,1768
2016-08-12T05:48:01.344Z,1776
2016-08-12T05:49:01.245Z,1872
2016-08-12T05:50:01.243Z,1912
2016-08-12T05:51:01.179Z,1960
2016-08-12T05:52:01.875Z,1924
2016-08-12T05:53:01.267Z,1736
2016-08-12T05:54:01.280Z,2092
2016-08-12T05:55:01.143Z,2012
2016-08-12T05:56:01.149Z,2024
2016-08-12T05:57:01.256Z,1992
2016-08-12T05:58:01.106Z,2092
2016-08-12T05:59:01.248Z,1968
2016-08-12T06:00:01.097Z,1996
2016-08-12T06:01:01.187Z,2008
2016-08-12T06:02:01.084Z,2124
2016-08-12T06:03:01.234Z,1896
2016-08-12T06:04:01.109Z,1620
2016-08-12T06:05:01.113Z,1560
2016-08-12T06:06:01.125Z,1632
2016-08-12T06:07:01.127Z,1712
2016-08-12T06:08:01.730Z,1620
2016-08-12T06:09:01.141Z,1884
2016-08-12T06:10:01.152Z,2032
2016-08-12T06:11:01.066Z,2136
2016-08-12T06:12:01.264Z,2044
2016-08-12T06:13:01.165Z,2056
2016-08-12T06:14:01.072Z,2060
2016-08-12T06:15:01.088Z,1812
2016-08-12T06:16:01.288Z,1956
2016-08-12T06:17:01.284Z,1880
2016-08-12T06:18:01.237Z,2348
2016-08-12T06:19:01.111Z,2000
2016-08-12T06:20:01.120Z,2388
2016-08-12T06:21:01.247Z,2424
2016-08-12T06:22:01.319Z,2380
2016-08-12T06:24:01.198Z,3048
2016-08-12T06:25:00.939Z,2620
2016-08-12T06:26:01.063Z,2824
2016-08-12T06:27:01.066Z,3016
2016-08-12T06:28:01.079Z,3100
2016-08-12T06:29:01.421Z,3180
2016-08-12T06:30:01.069Z,3096
2016-08-12T06:31:00.937Z,2884
2016-08-12T06:32:00.916Z,2948
2016-08-12T06:33:01.532Z,2556
2016-08-12T06:34:01.017Z,2836
2016-08-12T06:35:01.049Z,3004
2016-08-12T06:36:01.053Z,3352
2016-08-12T06:37:00.896Z,3548
2016-08-12T06:38:00.872Z,3748
2016-08-12T06:39:00.895Z,4324
2016-08-12T06:40:00.860Z,4444
2016-08-12T06:41:00.861Z,3744
2016-08-12T06:42:00.893Z,4392
2016-08-12T06:43:00.861Z,4988
2016-08-12T06:44:00.875Z,4972
2016-08-12T06:45:00.873Z,5136
2016-08-12T06:46:00.744Z,5304
2016-08-12T06:47:00.748Z,5696
2016-08-12T06:48:00.856Z,5404
2016-08-12T06:49:00.870Z,5404
2016-08-12T06:50:00.716Z,5340
2016-08-12T06:51:00.887Z,5168
2016-08-12T06:52:00.712Z,4880
2016-08-12T06:53:00.852Z,5324
2016-08-12T06:54:00.672Z,5200
2016-08-12T06:55:00.683Z,5616
2016-08-12T06:56:00.671Z,5728
2016-08-12T06:57:00.654Z,5540
2016-08-12T06:58:00.650Z,5160
2016-08-12T06:59:00.686Z,4800
2016-08-12T07:00:00.655Z,5448
2016-08-12T07:01:00.612Z,5588
2016-08-12T07:02:02.074Z,5308
2016-08-12T07:03:00.633Z,5044
2016-08-12T07:04:00.637Z,5508
2016-08-12T07:05:00.628Z,5404
2016-08-12T07:06:00.647Z,5440
2016-08-12T07:07:00.622Z,5880
2016-08-12T07:08:01.294Z,5656
2016-08-12T07:09:00.599Z,7052
2016-08-12T07:10:00.603Z,6796
2016-08-12T07:11:00.584Z,6424
2016-08-12T07:12:00.553Z,6148
2016-08-12T07:13:00.551Z,6684
2016-08-12T07:14:00.538Z,6616
2016-08-12T07:15:00.553Z,6860
2016-08-12T07:16:00.563Z,7544
2016-08-12T07:17:00.580Z,7428
2016-08-12T07:18:00.549Z,7260
2016-08-12T07:19:00.560Z,6536
2016-08-12T07:20:00.497Z,6488
2016-08-12T07:21:00.489Z,6564
2016-08-12T07:22:00.491Z,6356
2016-08-12T07:23:00.509Z,6156
2016-08-12T07:24:00.489Z,6272
2016-08-12T07:25:00.476Z,6728
2016-08-12T07:26:00.504Z,6640
2016-08-12T07:27:00.484Z,6512
2016-08-12T07:28:00.497Z,6616
2016-08-12T07:29:00.486Z,6476
2016-08-12T07:30:00.467Z,7448
2016-08-12T07:31:00.472Z,7556
2016-08-12T07:32:00.545Z,6788
2016-08-12T07:33:00.419Z,6596
2016-08-12T07:34:00.424Z,7292
2016-08-12T07:35:00.460Z,6644
2016-08-12T07:36:00.526Z,7556
2016-08-12T07:37:01.361Z,7316
2016-08-12T07:38:00.433Z,6288
2016-08-12T07:39:00.400Z,7408
2016-08-12T07:40:00.394Z,6392
2016-08-12T07:41:00.386Z,7372
2016-08-12T07:42:00.382Z,7400
2016-08-12T07:43:00.412Z,7156
2016-08-12T07:44:00.363Z,7732
2016-08-12T07:45:00.354Z,8260
2016-08-12T07:46:00.434Z,8708
2016-08-12T07:47:00.384Z,8624
2016-08-12T07:48:00.337Z,8392
2016-08-12T07:49:00.325Z,8428
2016-08-12T07:50:00.349Z,7960
2016-08-12T07:51:00.324Z,7636
2016-08-12T07:52:00.302Z,7732
2016-08-12T07:53:00.466Z,8712
2016-08-12T07:54:00.552Z,8372
2016-08-12T07:55:00.303Z,7808
2016-08-12T07:56:00.322Z,8440
2016-08-12T07:57:00.337Z,7924
2016-08-12T07:58:00.351Z,7560
2016-08-12T07:59:00.325Z,8012
2016-08-12T08:00:01.182Z,8776
2016-08-12T08:01:00.288Z,8128
2016-08-12T08:02:00.284Z,7020
2016-08-12T08:03:00.295Z,7716
2016-08-12T08:04:00.260Z,8328
2016-08-12T08:05:00.293Z,8736
2016-08-12T08:06:00.251Z,9184
2016-08-12T08:07:00.490Z,8848
2016-08-12T08:08:00.337Z,7988
2016-08-12T08:09:00.234Z,7612
2016-08-12T08:10:00.289Z,7488
2016-08-12T08:11:00.240Z,6532
2016-08-12T08:12:00.219Z,6852
2016-08-12T08:13:00.261Z,7692
2016-08-12T08:14:00.275Z,7676
2016-08-12T08:15:00.220Z,8312
2016-08-12T08:16:00.205Z,7836
2016-08-12T08:17:00.193Z,8112
2016-08-12T08:18:00.237Z,7524
2016-08-12T08:19:00.213Z,7156
2016-08-12T08:20:00.165Z,7100
2016-08-12T08:21:00.264Z,7420
2016-08-12T08:22:00.168Z,7904
2016-08-12T08:23:00.173Z,8296
2016-08-12T08:24:00.149Z,8496
2016-08-12T08:25:00.188Z,8672
2016-08-12T08:26:00.127Z,10168
2016-08-12T08:27:00.161Z,10176
2016-08-12T08:28:00.254Z,9952
2016-08-12T08:29:00.152Z,10284
2016-08-12T08:30:00.150Z,10152
2016-08-12T08:31:00.158Z,10144
2016-08-12T08:32:00.099Z,11076
2016-08-12T08:33:00.106Z,11416
2016-08-12T08:34:00.107Z,11788
2016-08-12T08:35:00.087Z,12060
2016-08-12T08:36:00.088Z,11276
2016-08-12T08:37:00.123Z,9764
2016-08-12T08:38:00.226Z,8212
2016-08-12T08:39:00.191Z,9324
2016-08-12T08:40:00.071Z,9868
2016-08-12T08:41:00.060Z,10624
2016-08-12T08:42:00.061Z,10888
2016-08-12T08:43:00.071Z,11328
2016-08-12T08:44:00.065Z,10508
2016-08-12T08:45:01.286Z,11204
2016-08-12T08:46:00.297Z,14048
2016-08-12T08:47:00.109Z,14360
2016-08-12T08:48:00.013Z,16292
2016-08-12T08:49:00.065Z,17024
2016-08-12T08:50:00.817Z,15940
2016-08-12T08:51:00.028Z,14892
2016-08-12T08:52:00.006Z,13688
2016-08-12T08:52:59.999Z,12536
2016-08-12T08:54:00.003Z,11240
2016-08-12T08:55:00.002Z,11792
2016-08-12T08:55:59.992Z,12984
2016-08-12T08:56:59.979Z,11956
2016-08-12T08:58:00.955Z,10300
2016-08-12T08:59:00.806Z,9784
2016-08-12T08:59:59.977Z,8060
2016-08-12T09:01:00.003Z,7016
2016-08-12T09:01:59.999Z,7192
2016-08-12T09:03:00.027Z,8920
2016-08-12T09:03:59.960Z,9656
2016-08-12T09:06:00.183Z,12688
2016-08-12T09:07:00.151Z,16124
2016-08-12T09:08:00.153Z,18048
2016-08-12T09:09:00.875Z,17216
2016-08-12T09:10:00.176Z,16224
2016-08-12T09:11:00.221Z,14944
2016-08-12T09:12:00.877Z,11724
2016-08-12T09:13:00.158Z,11984
2016-08-12T09:14:00.152Z,10852
2016-08-12T09:15:00.165Z,11180
2016-08-12T09:16:00.014Z,11972
2016-08-12T09:17:00.160Z,14124
2016-08-12T09:18:00.165Z,14852
2016-08-12T09:19:00.172Z,15368
2016-08-12T09:20:00.190Z,17120
2016-08-12T09:21:00.026Z,14364
2016-08-12T09:22:00.145Z,11736
2016-08-12T09:23:00.012Z,12172
2016-08-12T09:23:59.988Z,10944
2016-08-12T09:25:00.123Z,10024
2016-08-12T09:26:00.023Z,9840
2016-08-12T09:26:59.980Z,10084
2016-08-12T09:27:59.986Z,10496
2016-08-12T09:28:59.970Z,11756
2016-08-12T09:30:00.192Z,10616
2016-08-12T09:30:59.965Z,10144
2016-08-12T09:31:59.951Z,10744
2016-08-12T09:32:59.977Z,10888
2016-08-12T09:33:59.969Z,11284
2016-08-12T09:35:59.823Z,11648
2016-08-12T09:36:59.969Z,11348
2016-08-12T09:37:59.827Z,10832
2016-08-12T09:38:59.811Z,8944
2016-08-12T09:39:59.821Z,6880
2016-08-12T09:40:59.899Z,7852
2016-08-12T09:41:59.830Z,6908
2016-08-12T09:43:00.116Z,6080
2016-08-12T09:43:59.807Z,8036
2016-08-12T09:44:59.789Z,8800
2016-08-12T09:45:59.803Z,9500
2016-08-12T09:46:59.768Z,10024
2016-08-12T09:47:59.784Z,9764
2016-08-12T09:48:59.984Z,9480
2016-08-12T09:50:59.769Z,10036
2016-08-12T09:51:59.783Z,9860
2016-08-12T09:53:00.453Z,10180
2016-08-12T09:53:59.739Z,11160
2016-08-12T09:54:59.740Z,9252
2016-08-12T09:55:59.737Z,10772
2016-08-12T09:56:59.740Z,12420
2016-08-12T09:57:59.950Z,12268
2016-08-12T09:58:59.741Z,11812
2016-08-12T09:59:59.725Z,11148
2016-08-12T10:00:59.716Z,9688
2016-08-12T10:01:59.714Z,11412
2016-08-12T10:02:59.709Z,10856
2016-08-12T10:03:59.710Z,11580
2016-08-12T10:04:59.700Z,10820
2016-08-12T10:05:59.704Z,9052
2016-08-12T10:06:59.723Z,10340
2016-08-12T10:07:59.694Z,10096
2016-08-12T10:08:59.724Z,11456
2016-08-12T10:09:59.703Z,10904
2016-08-12T10:10:59.681Z,10760
2016-08-12T10:11:59.695Z,9508
2016-08-12T10:12:59.710Z,11148
2016-08-12T10:13:59.694Z,10648
2016-08-12T10:14:59.724Z,8304
2016-08-12T10:15:59.682Z,7708
2016-08-12T10:16:59.642Z,8836
2016-08-12T10:17:59.637Z,9252
2016-08-12T10:18:59.666Z,10160
2016-08-12T10:19:59.706Z,9472
2016-08-12T10:20:59.724Z,8740
2016-08-12T10:21:59.741Z,8624
2016-08-12T10:22:59.693Z,8940
2016-08-12T10:23:59.955Z,7896
2016-08-12T10:24:59.850Z,8556
2016-08-12T10:25:59.674Z,7480
2016-08-12T10:26:59.677Z,8352
2016-08-12T10:27:59.706Z,9352
2016-08-12T10:28:59.675Z,8532
2016-08-12T10:29:59.822Z,9372
2016-08-12T10:30:59.682Z,8784
2016-08-12T10:31:59.675Z,9704
2016-08-12T10:32:59.690Z,9356
2016-08-12T10:33:59.679Z,9864
2016-08-12T10:34:59.791Z,10012
2016-08-12T10:35:59.689Z,9168
2016-08-12T10:36:59.676Z,7488
2016-08-12T10:37:59.799Z,7300
2016-08-12T10:38:59.660Z,7356
2016-08-12T10:39:59.644Z,7032
2016-08-12T10:40:59.653Z,6896
2016-08-12T10:41:59.661Z,7068
2016-08-12T10:42:59.653Z,6820
2016-08-12T10:43:59.519Z,6388
2016-08-12T10:44:59.629Z,6860
2016-08-12T10:46:00.222Z,7268
2016-08-12T10:46:59.637Z,6740
2016-08-12T10:47:59.634Z,6656
2016-08-12T10:48:59.630Z,7460
2016-08-12T10:49:59.500Z,8864
2016-08-12T10:50:59.503Z,9264
2016-08-12T10:51:59.626Z,8892
2016-08-12T10:52:59.615Z,10964
2016-08-12T10:53:59.623Z,14584
2016-08-12T10:55:00.203Z,15500
2016-08-12T10:55:59.477Z,14920
2016-08-12T10:57:00.181Z,16412
2016-08-12T10:57:59.472Z,18720
2016-08-12T10:58:59.476Z,19648
2016-08-12T10:59:59.465Z,14064
2016-08-12T11:00:59.465Z,11084
2016-08-12T11:01:59.461Z,11080
2016-08-12T11:02:59.485Z,12852
2016-08-12T11:03:59.606Z,10908
2016-08-12T11:04:59.444Z,9876
2016-08-12T11:05:59.474Z,9036
2016-08-12T11:06:59.439Z,8912
2016-08-12T11:07:59.437Z,9928
2016-08-12T11:09:14.319Z,8996
2016-08-12T11:09:59.478Z,8532
2016-08-12T11:10:59.421Z,8216
2016-08-12T11:11:59.462Z,9120
2016-08-12T11:12:59.434Z,8828
2016-08-12T11:13:59.755Z,7956
2016-08-12T11:14:59.418Z,7932
2016-08-12T11:15:59.412Z,6992
2016-08-12T11:16:59.393Z,6860
2016-08-12T11:18:00.116Z,6052
2016-08-12T11:18:59.392Z,7484
2016-08-12T11:19:59.377Z,7316
2016-08-12T11:20:59.405Z,7476
2016-08-12T11:21:59.380Z,8972
2016-08-12T11:22:59.401Z,9020
2016-08-12T11:24:00.196Z,8252
2016-08-12T11:24:59.876Z,8012
2016-08-12T11:25:59.397Z,7144
2016-08-12T11:26:59.401Z,7200
2016-08-12T11:27:59.350Z,7472
2016-08-12T11:29:00.151Z,7176
2016-08-12T11:29:59.344Z,7100
2016-08-12T11:30:59.344Z,6912
2016-08-12T11:31:59.373Z,7272
2016-08-12T11:32:59.342Z,8252
2016-08-12T11:33:59.381Z,8808
2016-08-12T11:34:59.336Z,8188
2016-08-12T11:35:59.421Z,7940
2016-08-12T11:36:59.339Z,8628
2016-08-12T11:37:59.308Z,8320
2016-08-12T11:38:59.320Z,9344
2016-08-12T11:39:59.322Z,8852
2016-08-12T11:40:59.309Z,7896
2016-08-12T11:41:59.351Z,8120
2016-08-12T11:42:59.310Z,7764
2016-08-12T11:43:59.311Z,8008
2016-08-12T11:44:59.295Z,8276
2016-08-12T11:45:59.339Z,8240
2016-08-12T11:46:59.293Z,8616
2016-08-12T11:47:59.327Z,8172
2016-08-12T11:48:59.288Z,8236
2016-08-12T11:49:59.264Z,7076
2016-08-12T11:50:59.293Z,6960
2016-08-12T11:51:59.252Z,7164
2016-08-12T11:52:59.303Z,9176
2016-08-12T11:53:59.295Z,10016
2016-08-12T11:54:59.286Z,10212
2016-08-12T11:55:59.248Z,12940
2016-08-12T11:56:59.262Z,14920
2016-08-12T11:57:59.275Z,15120
2016-08-12T11:58:59.256Z,13800
2016-08-12T11:59:59.285Z,13892
2016-08-12T12:00:59.234Z,11728
2016-08-12T12:01:59.332Z,14444
2016-08-12T12:02:59.224Z,16212
2016-08-12T12:03:59.241Z,14188
2016-08-12T12:04:59.256Z,15420
2016-08-12T12:05:59.237Z,14440
2016-08-12T12:06:59.200Z,12560
2016-08-12T12:07:59.230Z,11768
2016-08-12T12:08:59.205Z,12488
2016-08-12T12:09:59.256Z,11544
2016-08-12T12:10:59.185Z,11740
2016-08-12T12:11:59.193Z,11808
2016-08-12T12:12:59.959Z,10452
2016-08-12T12:13:59.185Z,10248
2016-08-12T12:14:59.219Z,9576
2016-08-12T12:15:59.182Z,8740
2016-08-12T12:16:59.948Z,7996
2016-08-12T12:17:59.254Z,8368
2016-08-12T12:18:59.170Z,8508
2016-08-12T12:19:59.192Z,8160
2016-08-12T12:20:59.212Z,7796
2016-08-12T12:21:59.165Z,7496
2016-08-12T12:22:59.258Z,6268
2016-08-12T12:23:59.209Z,6364
2016-08-12T12:24:59.152Z,6988
2016-08-12T12:25:59.215Z,6760
2016-08-12T12:26:59.159Z,7032
2016-08-12T12:27:59.161Z,6656
2016-08-12T12:28:59.145Z,8052
2016-08-12T12:29:59.190Z,8120
2016-08-12T12:30:59.139Z,9796
2016-08-12T12:31:59.273Z,10032
2016-08-12T12:32:59.150Z,8984
2016-08-12T12:33:59.971Z,8000
2016-08-12T12:34:59.146Z,8728
2016-08-12T12:35:59.174Z,7880
2016-08-12T12:36:59.163Z,6888
2016-08-12T12:37:59.146Z,7856
2016-08-12T12:38:59.153Z,8964
2016-08-12T12:39:59.112Z,10244
2016-08-12T12:40:59.132Z,11700
2016-08-12T12:41:59.132Z,12780
2016-08-12T12:42:59.107Z,12224
2016-08-12T12:43:59.132Z,12404
2016-08-12T12:44:59.124Z,11704
2016-08-12T12:45:59.087Z,11216
2016-08-12T12:46:59.086Z,10284
2016-08-12T12:47:59.097Z,10056
2016-08-12T12:48:59.078Z,9564
2016-08-12T12:49:59.095Z,9480
2016-08-12T12:50:59.105Z,9356
2016-08-12T12:51:59.091Z,8736
2016-08-12T12:52:59.085Z,8580
2016-08-12T12:53:59.917Z,7784
2016-08-12T12:54:59.075Z,7804
2016-08-12T12:55:59.129Z,8132
2016-08-12T12:56:59.059Z,8548
2016-08-12T12:57:59.067Z,9500
2016-08-12T12:58:59.056Z,7988
2016-08-12T12:59:59.057Z,9564
2016-08-12T13:00:59.068Z,9908
2016-08-12T13:01:59.046Z,9644
2016-08-12T13:02:59.050Z,9848
2016-08-12T13:03:59.916Z,9932
2016-08-12T13:04:59.072Z,9824
2016-08-12T13:05:59.043Z,10252
2016-08-12T13:06:59.073Z,12412
2016-08-12T13:07:59.887Z,13592
2016-08-12T13:08:59.049Z,12444
2016-08-12T13:09:59.073Z,11920
2016-08-12T13:10:59.037Z,11452
2016-08-12T13:11:59.028Z,10700
2016-08-12T13:12:59.899Z,10912
2016-08-12T13:13:59.036Z,13804
2016-08-12T13:14:59.012Z,11844
2016-08-12T13:15:59.002Z,11148
2016-08-12T13:16:59.004Z,9428
2016-08-12T13:17:59.017Z,7256
2016-08-12T13:18:59.002Z,6740
2016-08-12T13:19:58.996Z,7900
2016-08-12T13:20:58.989Z,11784
2016-08-12T13:21:58.987Z,12380
2016-08-12T13:22:58.994Z,9784
2016-08-12T13:23:58.997Z,10044
2016-08-12T13:24:59.030Z,8804
2016-08-12T13:25:58.989Z,10924
2016-08-12T13:26:59.159Z,12296
2016-08-12T13:27:59.212Z,12108
2016-08-12T13:28:58.967Z,11800
2016-08-12T13:29:58.974Z,12540
2016-08-12T13:30:58.981Z,12636
2016-08-12T13:31:58.965Z,13220
2016-08-12T13:32:58.959Z,13100
2016-08-12T13:33:58.965Z,13844
2016-08-12T13:34:58.974Z,12936
2016-08-12T13:35:58.964Z,11024
2016-08-12T13:36:58.965Z,9492
2016-08-12T13:37:58.952Z,8880
2016-08-12T13:38:58.975Z,8284
2016-08-12T13:39:59.659Z,8304
2016-08-12T13:40:58.945Z,8636
2016-08-12T13:41:58.938Z,8788
2016-08-12T13:42:59.884Z,7876
2016-08-12T13:43:58.941Z,7912
2016-08-12T13:44:58.938Z,8448
2016-08-12T13:45:58.932Z,10104
2016-08-12T13:46:58.984Z,10496